createdAt,value
2019-03-17T00:01:57.119Z,5.47
2019-03-17T00:04:31.009Z,3.27
2019-03-17T00:06:51.917Z,3.77
2019-03-17T00:09:20.237Z,3.43
2019-03-17T00:11:48.534Z,3.23
2019-03-17T00:14:16.752Z,3.30
2019-03-17T00:16:45.119Z,3.63
2019-03-17T00:19:13.346Z,3.17
2019-03-17T00:21:41.574Z,3.20
2019-03-17T00:24:09.753Z,3.57
2019-03-17T00:26:38.198Z,3.23
2019-03-17T00:29:06.301Z,4.70
2019-03-17T00:31:34.473Z,3.37
2019-03-17T00:34:02.811Z,3.60
2019-03-17T00:36:30.824Z,3.63
2019-03-17T00:38:59.102Z,3.53
2019-03-17T00:41:27.414Z,3.67
2019-03-17T00:43:55.532Z,4.10
2019-03-17T00:46:23.618Z,4.60
2019-03-17T00:48:51.993Z,5.10
2019-03-17T00:51:20.373Z,6.77
2019-03-17T00:53:48.542Z,6.63
2019-03-17T00:56:16.775Z,5.53
2019-03-17T00:58:44.990Z,4.80
2019-03-17T01:01:13.372Z,3.90
2019-03-17T01:03:41.719Z,3.93
2019-03-17T01:06:09.929Z,2.90
2019-03-17T01:08:38.094Z,3.20
2019-03-17T01:11:06.395Z,3.80
2019-03-17T01:13:34.543Z,3.43
2019-03-17T01:16:02.924Z,3.77
2019-03-17T01:18:31.321Z,3.50
2019-03-17T01:20:59.677Z,3.53
2019-03-17T01:23:27.970Z,3.10
2019-03-17T01:25:56.346Z,3.10
2019-03-17T01:28:24.711Z,3.30
2019-03-17T01:30:52.874Z,3.47
2019-03-17T01:33:21.114Z,3.77
2019-03-17T01:35:49.116Z,3.17
2019-03-17T01:38:17.300Z,3.10
2019-03-17T01:40:45.555Z,3.10
2019-03-17T01:43:13.649Z,3.47
2019-03-17T01:45:41.823Z,3.03
2019-03-17T01:48:10.071Z,2.70
2019-03-17T01:50:38.204Z,2.83
2019-03-17T01:53:06.558Z,3.23
2019-03-17T01:55:36.631Z,2.97
2019-03-17T01:58:04.835Z,2.80
2019-03-17T02:00:33.261Z,3.60
2019-03-17T02:03:01.560Z,3.00
2019-03-17T02:05:29.870Z,3.20
2019-03-17T02:07:58.264Z,3.57
2019-03-17T02:10:26.483Z,3.30
2019-03-17T02:12:54.697Z,3.70
2019-03-17T02:15:22.906Z,3.47
2019-03-17T02:17:51.285Z,3.20
2019-03-17T02:20:19.746Z,2.90
2019-03-17T02:22:48.117Z,2.87
2019-03-17T02:25:16.475Z,3.43
2019-03-17T02:27:44.678Z,3.30
2019-03-17T02:30:12.879Z,3.70
2019-03-17T02:32:41.176Z,3.80
2019-03-17T02:35:09.862Z,3.83
2019-03-17T02:37:38.184Z,3.53
2019-03-17T02:40:06.712Z,3.53
2019-03-17T02:42:35.044Z,3.77
2019-03-17T02:45:03.507Z,4.23
2019-03-17T02:47:31.716Z,4.13
2019-03-17T02:49:59.988Z,3.90
2019-03-17T02:52:28.337Z,3.27
2019-03-17T02:54:56.684Z,3.53
2019-03-17T02:57:24.886Z,4.10
2019-03-17T02:59:53.082Z,4.73
2019-03-17T03:02:21.518Z,5.33
2019-03-17T03:04:49.706Z,6.23
2019-03-17T03:07:18.108Z,4.40
2019-03-17T03:09:46.452Z,4.40
2019-03-17T03:12:14.577Z,4.20
2019-03-17T03:14:42.935Z,4.60
2019-03-17T03:17:11.438Z,3.67
2019-03-17T03:19:39.691Z,4.67
2019-03-17T03:22:07.982Z,3.70
2019-03-17T03:24:36.310Z,3.90
2019-03-17T03:27:04.340Z,4.03
2019-03-17T03:29:32.780Z,3.50
2019-03-17T03:32:01.188Z,3.20
2019-03-17T03:34:29.473Z,3.67
2019-03-17T03:36:57.702Z,3.80
2019-03-17T03:39:26.004Z,3.60
2019-03-17T03:41:54.475Z,3.73
2019-03-17T03:44:22.634Z,3.33
2019-03-17T03:46:51.000Z,2.80
2019-03-17T03:49:19.287Z,3.13
2019-03-17T03:51:47.606Z,3.00
2019-03-17T03:54:16.060Z,2.73
2019-03-17T03:56:44.241Z,2.57
2019-03-17T03:59:12.529Z,3.20
2019-03-17T04:01:40.926Z,2.63
2019-03-17T04:04:09.255Z,2.60
2019-03-17T04:06:37.521Z,2.27
2019-03-17T04:09:07.151Z,2.83
2019-03-17T04:11:35.440Z,2.57
2019-03-17T04:14:03.810Z,2.80
2019-03-17T04:16:32.141Z,2.70
2019-03-17T04:19:00.333Z,2.77
2019-03-17T04:21:28.919Z,2.77
2019-03-17T04:23:57.013Z,2.90
2019-03-17T04:26:25.587Z,2.70
2019-03-17T04:28:53.874Z,2.97
2019-03-17T04:31:22.168Z,3.90
2019-03-17T04:33:50.406Z,3.80
2019-03-17T04:36:18.571Z,3.67
2019-03-17T04:38:46.923Z,4.00
2019-03-17T04:41:15.121Z,3.43
2019-03-17T04:43:43.414Z,3.73
2019-03-17T04:46:11.644Z,4.80
2019-03-17T04:48:39.864Z,4.30
2019-03-17T04:51:08.222Z,4.70
2019-03-17T04:53:36.861Z,5.13
2019-03-17T04:56:05.089Z,4.83
2019-03-17T04:58:33.374Z,5.30
2019-03-17T05:01:01.699Z,5.17
2019-03-17T05:03:29.831Z,4.20
2019-03-17T05:05:58.088Z,3.37
2019-03-17T05:08:26.453Z,3.60
2019-03-17T05:10:54.635Z,2.80
2019-03-17T05:13:22.855Z,2.83
2019-03-17T05:15:51.158Z,2.43
2019-03-17T05:18:19.359Z,2.47
2019-03-17T05:20:47.536Z,2.43
2019-03-17T05:23:15.828Z,2.80
2019-03-17T05:25:44.213Z,2.40
2019-03-17T05:28:12.479Z,2.77
2019-03-17T05:30:40.806Z,2.60
2019-03-17T05:33:09.012Z,2.77
2019-03-17T05:35:37.185Z,3.10
2019-03-17T05:38:05.453Z,3.27
2019-03-17T05:40:33.533Z,4.13
2019-03-17T05:43:01.782Z,4.10
2019-03-17T05:45:30.133Z,4.10
2019-03-17T05:47:58.355Z,4.47
2019-03-17T05:50:26.533Z,5.07
2019-03-17T05:52:54.776Z,5.67
2019-03-17T05:55:23.102Z,6.10
2019-03-17T05:57:51.479Z,9.00
2019-03-17T06:00:19.983Z,8.93
2019-03-17T06:02:48.233Z,9.53
2019-03-17T06:05:16.494Z,10.77
2019-03-17T06:07:44.731Z,10.97
2019-03-17T06:10:12.946Z,9.77
2019-03-17T06:12:41.109Z,8.37
2019-03-17T06:15:09.767Z,7.00
2019-03-17T06:17:37.987Z,7.53
2019-03-17T06:20:07.131Z,6.47
2019-03-17T06:22:35.491Z,7.50
2019-03-17T06:25:04.397Z,8.57
2019-03-17T06:27:32.611Z,7.67
2019-03-17T06:30:00.851Z,7.10
2019-03-17T06:32:28.954Z,7.23
2019-03-17T06:34:57.368Z,7.90
2019-03-17T06:37:30.975Z,8.27
2019-03-17T06:39:55.643Z,7.70
2019-03-17T06:42:23.951Z,7.50
2019-03-17T06:44:53.203Z,7.37
2019-03-17T06:47:21.378Z,7.43
2019-03-17T06:49:49.575Z,7.13
2019-03-17T06:52:17.756Z,6.77
2019-03-17T06:54:46.198Z,7.77
2019-03-17T06:57:14.271Z,6.53
2019-03-17T06:59:42.822Z,6.77
2019-03-17T07:02:11.032Z,6.80
2019-03-17T07:04:39.101Z,6.23
2019-03-17T07:07:07.350Z,6.90
2019-03-17T07:09:35.512Z,7.03
2019-03-17T07:12:03.645Z,6.70
2019-03-17T07:14:31.958Z,7.63
2019-03-17T07:17:00.185Z,7.63
2019-03-17T07:19:28.468Z,7.93
2019-03-17T07:21:56.782Z,8.07
2019-03-17T07:24:25.006Z,6.77
2019-03-17T07:26:53.378Z,7.07
2019-03-17T07:29:21.602Z,6.07
2019-03-17T07:31:49.931Z,6.20
2019-03-17T07:34:18.102Z,6.83
2019-03-17T07:36:47.107Z,6.10
2019-03-17T07:39:15.313Z,6.50
2019-03-17T07:41:43.591Z,6.60
2019-03-17T07:44:11.902Z,7.20
2019-03-17T07:46:40.214Z,7.70
2019-03-17T07:49:08.485Z,8.03
2019-03-17T07:51:36.824Z,9.00
2019-03-17T07:54:04.946Z,10.63
2019-03-17T07:56:33.005Z,10.50
2019-03-17T07:59:01.351Z,10.40
2019-03-17T08:01:29.338Z,11.63
2019-03-17T08:03:57.729Z,12.07
2019-03-17T08:06:26.475Z,14.33
2019-03-17T08:08:54.675Z,12.00
2019-03-17T08:11:22.847Z,11.83
2019-03-17T08:13:51.103Z,12.13
2019-03-17T08:16:18.923Z,13.97
2019-03-17T08:18:47.268Z,13.97
2019-03-17T08:21:15.454Z,15.77
2019-03-17T08:23:43.325Z,17.53
2019-03-17T08:26:11.371Z,18.40
2019-03-17T08:28:39.272Z,17.10
2019-03-17T08:31:07.213Z,19.60
2019-03-17T08:33:35.104Z,20.00
2019-03-17T08:36:03.431Z,22.07
2019-03-17T08:38:31.514Z,19.33
2019-03-17T08:41:00.170Z,19.00
2019-03-17T08:43:28.081Z,17.83
2019-03-17T08:45:56.249Z,17.43
2019-03-17T08:48:24.439Z,17.40
2019-03-17T08:50:52.340Z,18.77
2019-03-17T08:53:20.173Z,17.57
2019-03-17T08:55:48.024Z,17.63
2019-03-17T08:58:15.887Z,20.57
2019-03-17T09:00:44.133Z,18.80
2019-03-17T09:03:12.453Z,18.40
2019-03-17T09:05:40.807Z,16.93
2019-03-17T09:08:09.107Z,18.57
2019-03-17T09:10:37.097Z,18.97
2019-03-17T09:13:05.044Z,17.17
2019-03-17T09:15:33.202Z,18.60
2019-03-17T09:18:01.377Z,16.63
2019-03-17T09:20:29.368Z,17.00
2019-03-17T09:22:57.421Z,18.70
2019-03-17T09:25:25.536Z,16.57
2019-03-17T09:27:53.835Z,15.10
2019-03-17T09:30:22.134Z,13.37
2019-03-17T09:32:50.427Z,16.20
2019-03-17T09:35:18.807Z,13.50
2019-03-17T09:37:47.087Z,11.80
2019-03-17T09:40:15.442Z,11.47
2019-03-17T09:42:43.490Z,11.83
2019-03-17T09:45:11.769Z,10.97
2019-03-17T09:47:41.176Z,10.90
2019-03-17T09:50:10.039Z,9.40
2019-03-17T09:52:38.278Z,9.40
2019-03-17T09:55:07.047Z,8.27
2019-03-17T09:57:35.407Z,8.67
2019-03-17T10:00:03.698Z,8.67
2019-03-17T10:02:31.501Z,7.00
2019-03-17T10:04:59.357Z,7.63
2019-03-17T10:07:27.259Z,7.40
2019-03-17T10:09:55.207Z,8.07
2019-03-17T10:12:23.505Z,8.00
2019-03-17T10:14:51.338Z,7.77
2019-03-17T10:17:19.121Z,8.20
2019-03-17T10:19:46.988Z,8.07
2019-03-17T10:22:14.848Z,8.60
2019-03-17T10:24:42.987Z,8.33
2019-03-17T10:27:11.391Z,7.87
2019-03-17T10:29:39.626Z,7.13
2019-03-17T10:32:07.491Z,7.67
2019-03-17T10:34:35.752Z,7.67
2019-03-17T10:37:03.728Z,6.90
2019-03-17T10:39:32.038Z,7.33
2019-03-17T10:42:00.409Z,6.70
2019-03-17T10:44:28.807Z,8.03
2019-03-17T10:46:57.074Z,7.83
2019-03-17T10:49:25.398Z,7.03
2019-03-17T10:51:53.289Z,7.60
2019-03-17T10:54:21.483Z,8.00
2019-03-17T10:56:49.704Z,7.92
2019-03-17T10:59:18.364Z,8.63
2019-03-17T11:01:46.590Z,8.50
2019-03-17T11:04:14.577Z,7.80
2019-03-17T11:06:42.765Z,7.83
2019-03-17T11:09:24.414Z,7.62
2019-03-17T11:11:42.332Z,7.62
2019-03-17T11:14:10.753Z,6.60
2019-03-17T11:16:38.696Z,8.15
2019-03-17T11:19:06.841Z,7.83
2019-03-17T11:21:35.175Z,6.83
2019-03-17T11:24:03.098Z,6.90
2019-03-17T11:26:31.523Z,6.85
2019-03-17T11:28:59.776Z,7.37
2019-03-17T11:31:27.621Z,6.80
2019-03-17T11:33:55.544Z,6.92
2019-03-17T11:36:24.092Z,6.05
2019-03-17T11:38:52.485Z,6.55
2019-03-17T11:41:20.839Z,6.50
2019-03-17T11:43:49.040Z,6.70
2019-03-17T11:46:17.209Z,6.30
2019-03-17T11:48:45.438Z,6.05
2019-03-17T11:51:13.658Z,6.45
2019-03-17T11:53:41.747Z,6.58
2019-03-17T11:56:10.146Z,6.22
2019-03-17T11:58:38.357Z,6.45
2019-03-17T12:01:06.659Z,7.17
2019-03-17T12:03:34.810Z,5.90
2019-03-17T12:06:03.029Z,6.78
2019-03-17T12:08:31.235Z,6.25
2019-03-17T12:10:59.508Z,6.62
2019-03-17T12:13:27.618Z,7.33
2019-03-17T12:15:55.482Z,6.47
2019-03-17T12:18:23.620Z,6.55
2019-03-17T12:20:51.854Z,8.73
2019-03-17T12:23:20.100Z,8.13
2019-03-17T12:25:48.343Z,7.03
2019-03-17T12:28:16.555Z,7.58
2019-03-17T12:30:44.723Z,6.95
2019-03-17T12:33:13.093Z,6.45
2019-03-17T12:35:41.377Z,7.35
2019-03-17T12:38:09.608Z,6.28
2019-03-17T12:40:38.069Z,7.35
2019-03-17T12:43:06.322Z,7.12
2019-03-17T12:45:34.581Z,7.15
2019-03-17T12:48:02.840Z,6.30
2019-03-17T12:50:31.130Z,7.07
2019-03-17T12:52:59.313Z,6.43
2019-03-17T12:55:27.535Z,7.67
2019-03-17T12:57:55.753Z,8.18
2019-03-17T13:00:24.151Z,7.55
2019-03-17T13:02:52.471Z,7.17
2019-03-17T13:05:20.807Z,6.25
2019-03-17T13:07:49.488Z,6.75
2019-03-17T13:10:17.930Z,6.93
2019-03-17T13:12:46.349Z,8.23
2019-03-17T13:15:17.274Z,7.20
2019-03-17T13:17:45.621Z,8.20
2019-03-17T13:20:14.242Z,7.60
2019-03-17T13:22:42.520Z,7.43
2019-03-17T13:25:11.416Z,6.70
2019-03-17T13:27:39.692Z,6.90
2019-03-17T13:30:09.701Z,7.07
2019-03-17T13:32:37.730Z,6.90
2019-03-17T13:35:06.773Z,7.37
2019-03-17T13:37:35.157Z,7.47
2019-03-17T13:40:03.706Z,8.50
2019-03-17T13:42:33.928Z,5.67
2019-03-17T13:45:02.428Z,5.70
2019-03-17T13:47:30.856Z,4.07
2019-03-17T13:49:59.167Z,4.50
2019-03-17T13:52:27.346Z,3.93
2019-03-17T13:54:55.690Z,4.33
2019-03-17T13:57:23.815Z,3.87
2019-03-17T13:59:51.970Z,4.07
2019-03-17T14:02:20.194Z,4.57
2019-03-17T14:04:48.326Z,4.60
2019-03-17T14:07:16.388Z,4.23
2019-03-17T14:09:44.721Z,4.37
2019-03-17T14:12:12.960Z,4.47
2019-03-17T14:14:41.325Z,4.10
2019-03-17T14:17:09.646Z,3.97
2019-03-17T14:19:37.892Z,3.90
2019-03-17T14:22:06.034Z,4.10
2019-03-17T14:24:34.286Z,4.60
2019-03-17T14:27:02.477Z,4.47
2019-03-17T14:29:33.022Z,3.93
2019-03-17T14:32:00.928Z,4.07
2019-03-17T14:34:29.246Z,4.60
2019-03-17T14:36:57.441Z,4.47
2019-03-17T14:39:25.745Z,4.80
2019-03-17T14:41:53.971Z,4.00
2019-03-17T14:44:22.255Z,4.80
2019-03-17T14:46:50.401Z,4.57
2019-03-17T14:49:18.607Z,5.27
2019-03-17T14:51:46.768Z,4.77
2019-03-17T14:54:14.920Z,4.23
2019-03-17T14:56:43.253Z,3.93
2019-03-17T14:59:12.510Z,4.70
2019-03-17T15:01:40.859Z,4.20
2019-03-17T15:04:09.014Z,3.53
2019-03-17T15:06:37.346Z,4.10
2019-03-17T15:09:07.259Z,4.07
2019-03-17T15:11:35.432Z,4.13
2019-03-17T15:14:04.118Z,4.47
2019-03-17T15:16:32.314Z,4.37
2019-03-17T15:19:00.576Z,4.73
2019-03-17T15:21:28.659Z,6.60
2019-03-17T15:23:57.074Z,4.37
2019-03-17T15:26:25.285Z,4.47
2019-03-17T15:28:53.574Z,4.57
2019-03-17T15:31:21.902Z,4.33
2019-03-17T15:33:50.041Z,4.27
2019-03-17T15:36:18.289Z,4.03
2019-03-17T15:38:46.526Z,4.90
2019-03-17T15:41:18.846Z,5.20
2019-03-17T15:43:44.763Z,4.77
2019-03-17T15:46:13.145Z,4.20
2019-03-17T15:48:41.210Z,5.03
2019-03-17T15:51:19.445Z,5.17
2019-03-17T15:53:39.387Z,4.23
2019-03-17T15:56:07.726Z,5.23
2019-03-17T15:58:36.060Z,4.40
2019-03-17T16:01:04.498Z,5.47
2019-03-17T16:03:33.669Z,4.57
2019-03-17T16:06:02.183Z,5.00
2019-03-17T16:08:30.339Z,4.37
2019-03-17T16:10:58.459Z,5.77
2019-03-17T16:13:26.855Z,5.50
2019-03-17T16:15:55.197Z,4.90
2019-03-17T16:18:23.499Z,4.83
2019-03-17T16:20:51.770Z,5.10
2019-03-17T16:23:21.080Z,4.80
2019-03-17T16:25:50.554Z,6.03
2019-03-17T16:28:19.066Z,6.20
2019-03-17T16:30:47.306Z,5.23
2019-03-17T16:33:15.499Z,6.10
2019-03-17T16:35:46.276Z,6.50
2019-03-17T16:38:13.941Z,5.77
2019-03-17T16:40:42.198Z,6.20
2019-03-17T16:43:10.447Z,6.20
2019-03-17T16:45:38.964Z,6.83
2019-03-17T16:48:07.098Z,6.47
2019-03-17T16:50:35.492Z,7.13
2019-03-17T16:53:03.938Z,6.23
2019-03-17T16:55:32.045Z,6.30
2019-03-17T16:58:00.490Z,6.17
2019-03-17T17:00:28.629Z,6.80
2019-03-17T17:02:56.768Z,7.07
2019-03-17T17:05:25.087Z,5.73
2019-03-17T17:07:53.363Z,7.22
2019-03-17T17:10:49.558Z,6.07
2019-03-17T17:13:10.794Z,6.00
2019-03-17T17:15:39.132Z,5.67
2019-03-17T17:18:07.400Z,7.67
2019-03-17T17:20:35.756Z,7.80
2019-03-17T17:23:04.156Z,9.20
2019-03-17T17:25:32.327Z,7.27
2019-03-17T17:28:00.706Z,9.10
2019-03-17T17:30:28.754Z,8.23
2019-03-17T17:32:56.966Z,8.60
2019-03-17T17:35:25.270Z,8.70
2019-03-17T17:37:53.519Z,9.07
2019-03-17T17:40:21.970Z,8.40
2019-03-17T17:42:50.334Z,7.70
2019-03-17T17:45:18.844Z,7.43
2019-03-17T17:47:47.052Z,8.90
2019-03-17T17:50:16.075Z,7.47
2019-03-17T17:52:44.281Z,6.73
2019-03-17T17:55:12.535Z,7.17
2019-03-17T17:57:40.805Z,6.77
2019-03-17T18:00:10.529Z,7.17
2019-03-17T18:02:38.958Z,7.03
2019-03-17T18:05:07.353Z,5.73
2019-03-17T18:07:35.671Z,7.27
2019-03-17T18:10:04.641Z,6.90
2019-03-17T18:12:32.542Z,7.63
2019-03-17T18:15:00.405Z,7.33
2019-03-17T18:17:28.679Z,8.13
2019-03-17T18:19:57.015Z,7.80
2019-03-17T18:22:25.183Z,7.03
2019-03-17T18:24:53.434Z,7.90
2019-03-17T18:27:21.634Z,8.60
2019-03-17T18:29:49.950Z,7.33
2019-03-17T18:32:18.023Z,7.87
2019-03-17T18:34:46.186Z,7.43
2019-03-17T18:37:14.386Z,8.63
2019-03-17T18:39:42.660Z,8.27
2019-03-17T18:42:10.994Z,7.60
2019-03-17T18:44:39.207Z,8.57
2019-03-17T18:47:07.375Z,9.07
2019-03-17T18:49:35.692Z,9.33
2019-03-17T18:52:03.869Z,8.73
2019-03-17T18:54:32.141Z,9.10
2019-03-17T18:57:00.463Z,8.50
2019-03-17T18:59:28.660Z,8.33
2019-03-17T19:01:56.834Z,9.03
2019-03-17T19:04:25.319Z,9.27
2019-03-17T19:06:53.575Z,8.70
2019-03-17T19:09:21.776Z,7.97
2019-03-17T19:11:50.089Z,8.63
2019-03-17T19:14:18.303Z,9.00
2019-03-17T19:16:46.663Z,8.33
2019-03-17T19:19:15.070Z,9.00
2019-03-17T19:21:43.127Z,8.20
2019-03-17T19:24:11.432Z,6.90
2019-03-17T19:26:39.654Z,8.10
2019-03-17T19:29:07.990Z,6.50
2019-03-17T19:31:36.422Z,5.67
2019-03-17T19:34:04.661Z,6.77
2019-03-17T19:36:32.793Z,5.83
2019-03-17T19:39:01.054Z,5.73
2019-03-17T19:41:29.293Z,6.13
2019-03-17T19:43:57.445Z,6.33
2019-03-17T19:46:25.734Z,6.63
2019-03-17T19:48:54.276Z,6.87
2019-03-17T19:51:22.620Z,6.73
2019-03-17T19:53:50.939Z,5.90
2019-03-17T19:56:19.266Z,6.03
2019-03-17T19:58:47.520Z,6.40
2019-03-17T20:01:15.738Z,6.63
2019-03-17T20:03:43.996Z,6.53
2019-03-17T20:06:12.194Z,6.70
2019-03-17T20:08:40.513Z,6.17
2019-03-17T20:11:08.954Z,5.97
2019-03-17T20:13:37.120Z,5.47
2019-03-17T20:16:05.291Z,7.93
2019-03-17T20:18:33.560Z,6.70
2019-03-17T20:21:01.659Z,5.77
2019-03-17T20:23:29.933Z,6.03
2019-03-17T20:25:58.346Z,5.97
2019-03-17T20:28:26.489Z,6.57
2019-03-17T20:30:54.659Z,6.43
2019-03-17T20:33:23.087Z,5.77
2019-03-17T20:35:51.396Z,5.70
2019-03-17T20:38:19.591Z,5.97
2019-03-17T20:40:48.275Z,6.07
2019-03-17T20:43:24.164Z,5.87
2019-03-17T20:45:48.569Z,6.50
2019-03-17T20:48:17.158Z,6.50
2019-03-17T20:50:45.494Z,6.17
2019-03-17T20:53:35.180Z,6.30
2019-03-17T20:56:03.751Z,6.60
2019-03-17T20:58:32.148Z,7.00
2019-03-17T21:01:00.577Z,6.10
2019-03-17T21:03:29.171Z,6.87
2019-03-17T21:05:57.457Z,7.57
2019-03-17T21:08:26.046Z,7.97
2019-03-17T21:10:55.132Z,6.70
2019-03-17T21:13:23.489Z,7.40
2019-03-17T21:15:52.573Z,7.47
2019-03-17T21:18:22.929Z,8.40
2019-03-17T21:20:51.611Z,6.67
2019-03-17T21:23:21.572Z,7.17
2019-03-17T21:25:51.246Z,8.00
2019-03-17T21:28:20.226Z,7.70
2019-03-17T21:30:48.580Z,7.07
2019-03-17T21:33:17.574Z,6.80
2019-03-17T21:35:45.856Z,6.80
2019-03-17T21:38:14.155Z,6.73
2019-03-17T21:40:56.390Z,6.87
2019-03-17T21:43:12.521Z,7.10
2019-03-17T21:45:41.877Z,7.23
2019-03-17T21:48:10.207Z,7.73
2019-03-17T21:50:38.476Z,6.40
2019-03-17T21:53:07.935Z,7.57
2019-03-17T21:55:36.359Z,7.30
2019-03-17T21:58:08.225Z,7.17
2019-03-17T22:00:34.643Z,7.70
2019-03-17T22:03:03.280Z,6.93
2019-03-17T22:05:31.410Z,6.60
2019-03-17T22:07:59.670Z,7.73
2019-03-17T22:10:27.815Z,7.60
2019-03-17T22:12:56.130Z,8.17
2019-03-17T22:15:24.385Z,7.90
2019-03-17T22:17:52.701Z,8.30
2019-03-17T22:20:20.959Z,8.83
2019-03-17T22:22:49.211Z,8.57
2019-03-17T22:25:17.310Z,8.73
2019-03-17T22:27:45.699Z,8.80
2019-03-17T22:30:14.257Z,8.07
2019-03-17T22:32:42.561Z,7.83
2019-03-17T22:35:11.123Z,8.17
2019-03-17T22:37:39.391Z,8.07
2019-03-17T22:40:09.522Z,8.10
2019-03-17T22:42:37.707Z,6.67
2019-03-17T22:45:06.587Z,7.87
2019-03-17T22:47:34.772Z,7.73
2019-03-17T22:50:03.277Z,7.23
2019-03-17T22:52:31.605Z,7.87
2019-03-17T22:54:59.890Z,7.67
2019-03-17T22:57:27.953Z,6.87
2019-03-17T22:59:56.298Z,7.60
2019-03-17T23:02:28.493Z,6.60
2019-03-17T23:04:56.901Z,7.47
2019-03-17T23:07:25.184Z,7.23
2019-03-17T23:09:53.321Z,6.87
2019-03-17T23:12:21.844Z,7.17
2019-03-17T23:14:50.053Z,7.13
2019-03-17T23:17:18.253Z,7.20
2019-03-17T23:19:46.495Z,7.63
2019-03-17T23:22:14.570Z,7.03
2019-03-17T23:24:42.773Z,6.70
2019-03-17T23:27:11.057Z,7.37
2019-03-17T23:29:39.410Z,6.70
2019-03-17T23:32:07.713Z,6.97
2019-03-17T23:34:35.918Z,6.93
2019-03-17T23:37:04.318Z,7.47
2019-03-17T23:39:32.546Z,7.10
2019-03-17T23:42:00.727Z,7.40
2019-03-17T23:44:29.208Z,7.17
2019-03-17T23:46:57.397Z,7.17
2019-03-17T23:49:25.643Z,6.40
2019-03-17T23:51:54.034Z,7.30
2019-03-17T23:54:22.287Z,6.43
2019-03-17T23:56:50.574Z,7.20
2019-03-17T23:59:19.194Z,6.93
